Elmar Dos — EAJM — position and weather

sailwx.info

Track history (hours):
 
Tides and Currents Weather Stations Pressure Air Temp Water Temp Dewpoint Dewpoint Depression Visibility Wind Speed Wind Dir Waves Ship Positions

Elmar Dos

Last reported at 2018-May-16 09:54 UTC. Time now 2018-Jun-20 21:05 UTC.
Position N 43°41' W 005°50'.
Warning: this ship's position is 35 days out of date.

Length 40 m; draft 1.5 m.

Type: Dredging. MMSI: 224040390.

Date/timePositionNaut miles runAvg speedWind from/ knotsBaromVisibWave heightAir tempDewpointWater temp
2018-May-16 09:54N 43°41' W 005°50'14 7.0
2018-May-16 07:57N 43°40' W 005°32'6 7.0
2018-May-16 07:09N 43°40' W 005°24'2 7.1
2018-May-16 06:55N 43°40' W 005°22'3 7.3
2018-May-16 06:27N 43°40' W 005°17'7 7.1
2018-May-16 05:31N 43°39' W 005°08'1 6.7
2018-May-16 05:24N 43°39' W 005°07'58 6.7
2018-May-15 20:48N 43°33' W 003°47'2 6.6
2018-May-15 20:30N 43°33' W 003°45'3 6.4
2018-May-15 20:00N 43°32' W 003°41'3 6.5
2018-May-15 19:30N 43°32' W 003°36'3 6.2
2018-May-15 18:59N 43°32' W 003°32'3 6.5
2018-May-15 18:30N 43°31' W 003°27'5 6.4
2018-May-15 17:41N 43°31' W 003°20'2 6.3
2018-May-15 17:22N 43°31' W 003°17'2 6.1
2018-May-15 17:00N 43°30' W 003°14'3 6.3
2018-May-15 16:31N 43°30' W 003°10'3 6.4
2018-May-15 16:00N 43°30' W 003°06'4 6.6
2018-May-15 15:28N 43°30' W 003°01'3 6.5
2018-May-15 15:00N 43°29' W 002°57'3 6.3
2018-May-15 14:30N 43°29' W 002°52'3 5.9
2018-May-15 14:00N 43°29' W 002°48'3 5.9
2018-May-15 13:31N 43°28' W 002°44'3 5.6
2018-May-15 13:00N 43°27' W 002°41'3 5.6
2018-May-15 12:30N 43°26' W 002°37'3 5.7
2018-May-15 12:01N 43°25' W 002°34'3 5.7
2018-May-15 11:30N 43°24' W 002°30'3 5.7
2018-May-15 11:00N 43°23' W 002°26'3 5.9
2018-May-15 10:30N 43°21' W 002°23'3 6.0
2018-May-15 10:00N 43°20' W 002°19'3 6.1
2018-May-15 09:30N 43°19' W 002°15'  
2018-May-11 15:17N 43°18' W 002°15'0 0.1
2018-May-11 14:53N 43°18' W 002°15'  
Track history (hours):
 
Tides and Currents Weather Stations Pressure Air Temp Water Temp Dewpoint Dewpoint Depression Visibility Wind Speed Wind Dir Waves Ship Positions

Elmar Dos

Last reported at 2018-May-16 09:54 UTC. Time now 2018-Jun-20 21:05 UTC.
Position N 43°41' W 005°50'.
Warning: this ship's position is 35 days out of date.

Length 40 m; draft 1.5 m.

Type: Dredging. MMSI: 224040390.

Date/timePositionNaut miles runAvg speedWind from/ knotsBaromVisibWave heightAir tempDewpointWater temp
2018-May-16 09:54N 43°41' W 005°50'14 7.0
2018-May-16 07:57N 43°40' W 005°32'6 7.0
2018-May-16 07:09N 43°40' W 005°24'2 7.1
2018-May-16 06:55N 43°40' W 005°22'3 7.3
2018-May-16 06:27N 43°40' W 005°17'7 7.1
2018-May-16 05:31N 43°39' W 005°08'1 6.7
2018-May-16 05:24N 43°39' W 005°07'58 6.7
2018-May-15 20:48N 43°33' W 003°47'2 6.6
2018-May-15 20:30N 43°33' W 003°45'3 6.4
2018-May-15 20:00N 43°32' W 003°41'3 6.5
2018-May-15 19:30N 43°32' W 003°36'3 6.2
2018-May-15 18:59N 43°32' W 003°32'3 6.5
2018-May-15 18:30N 43°31' W 003°27'5 6.4
2018-May-15 17:41N 43°31' W 003°20'2 6.3
2018-May-15 17:22N 43°31' W 003°17'2 6.1
2018-May-15 17:00N 43°30' W 003°14'3 6.3
2018-May-15 16:31N 43°30' W 003°10'3 6.4
2018-May-15 16:00N 43°30' W 003°06'4 6.6
2018-May-15 15:28N 43°30' W 003°01'3 6.5
2018-May-15 15:00N 43°29' W 002°57'3 6.3
2018-May-15 14:30N 43°29' W 002°52'3 5.9
2018-May-15 14:00N 43°29' W 002°48'3 5.9
2018-May-15 13:31N 43°28' W 002°44'3 5.6
2018-May-15 13:00N 43°27' W 002°41'3 5.6
2018-May-15 12:30N 43°26' W 002°37'3 5.7
2018-May-15 12:01N 43°25' W 002°34'3 5.7
2018-May-15 11:30N 43°24' W 002°30'3 5.7
2018-May-15 11:00N 43°23' W 002°26'3 5.9
2018-May-15 10:30N 43°21' W 002°23'3 6.0
2018-May-15 10:00N 43°20' W 002°19'3 6.1
2018-May-15 09:30N 43°19' W 002°15'  
2018-May-11 15:17N 43°18' W 002°15'0 0.1
2018-May-11 14:53N 43°18' W 002°15'  

Dump ship's entire track history